sensor_id;sensor_type;location;lat;lon;timestamp;pressure;altitude;pressure_sealevel;temperature;humidity
51687;BME280;37774;52.192;4.584;2023-04-30T00:02:26;102487.34;;;5.74;100.00
51687;BME280;37774;52.192;4.584;2023-04-30T00:05:12;102412.03;;;5.37;100.00
51687;BME280;37774;52.192;4.584;2023-04-30T00:07:57;102485.09;;;5.61;100.00
51687;BME280;37774;52.192;4.584;2023-04-30T00:10:44;102479.09;;;5.60;100.00
51687;BME280;37774;52.192;4.584;2023-04-30T00:13:29;102171.56;;;3.64;100.00
51687;BME280;37774;52.192;4.584;2023-04-30T00:16:15;102493.88;;;5.64;100.00
51687;BME280;37774;52.192;4.584;2023-04-30T00:19:00;102454.38;;;5.44;100.00
51687;BME280;37774;52.192;4.584;2023-04-30T00:21:46;102459.06;;;5.54;100.00
51687;BME280;37774;52.192;4.584;2023-04-30T00:24:31;102419.69;;;5.36;100.00
51687;BME280;37774;52.192;4.584;2023-04-30T00:27:18;102338.84;;;4.90;100.00
51687;BME280;37774;52.192;4.584;2023-04-30T00:30:05;102499.06;;;5.66;100.00
51687;BME280;37774;52.192;4.584;2023-04-30T00:32:50;102497.31;;;5.65;100.00
51687;BME280;37774;52.192;4.584;2023-04-30T00:35:36;102496.69;;;5.70;100.00
51687;BME280;37774;52.192;4.584;2023-04-30T00:38:21;102198.22;;;3.66;100.00
51687;BME280;37774;52.192;4.584;2023-04-30T00:41:06;102470.88;;;5.48;100.00
51687;BME280;37774;52.192;4.584;2023-04-30T00:43:53;102489.69;;;5.68;100.00
51687;BME280;37774;52.192;4.584;2023-04-30T00:46:38;102446.66;;;5.44;100.00
51687;BME280;37774;52.192;4.584;2023-04-30T00:49:24;102484.75;;;5.74;100.00
51687;BME280;37774;52.192;4.584;2023-04-30T00:52:10;102496.94;;;5.55;100.00
51687;BME280;37774;52.192;4.584;2023-04-30T00:54:56;102491.03;;;5.58;100.00
51687;BME280;37774;52.192;4.584;2023-04-30T00:57:41;102381.19;;;4.75;100.00
51687;BME280;37774;52.192;4.584;2023-04-30T01:00:28;102475.81;;;5.43;100.00
51687;BME280;37774;52.192;4.584;2023-04-30T01:03:14;102465.38;;;5.19;100.00
51687;BME280;37774;52.192;4.584;2023-04-30T01:06:00;102411.91;;;4.92;100.00
51687;BME280;37774;52.192;4.584;2023-04-30T01:08:47;102525.84;;;5.47;100.00
51687;BME280;37774;52.192;4.584;2023-04-30T01:11:39;102449.00;;;4.95;100.00
51687;BME280;37774;52.192;4.584;2023-04-30T01:14:33;102473.06;;;5.17;100.00
51687;BME280;37774;52.192;4.584;2023-04-30T01:17:29;102448.78;;;4.91;100.00
51687;BME280;37774;52.192;4.584;2023-04-30T01:20:16;102539.78;;;5.52;100.00
51687;BME280;37774;52.192;4.584;2023-04-30T01:23:07;102550.00;;;5.49;100.00
51687;BME280;37774;52.192;4.584;2023-04-30T01:26:09;102528.66;;;5.32;100.00
51687;BME280;37774;52.192;4.584;2023-04-30T01:28:58;102488.91;;;4.84;100.00
51687;BME280;37774;52.192;4.584;2023-04-30T01:31:44;102478.38;;;4.79;100.00
51687;BME280;37774;52.192;4.584;2023-04-30T01:34:29;102541.34;;;5.06;100.00
51687;BME280;37774;52.192;4.584;2023-04-30T01:37:21;102513.97;;;4.88;100.00
51687;BME280;37774;52.192;4.584;2023-04-30T01:40:21;102586.34;;;5.14;100.00
51687;BME280;37774;52.192;4.584;2023-04-30T01:43:13;102461.66;;;4.50;100.00
51687;BME280;37774;52.192;4.584;2023-04-30T01:46:09;102612.06;;;5.53;100.00
51687;BME280;37774;52.192;4.584;2023-04-30T01:49:03;102308.81;;;3.28;100.00
51687;BME280;37774;52.192;4.584;2023-04-30T01:51:59;102535.13;;;4.81;100.00
51687;BME280;37774;52.192;4.584;2023-04-30T01:54:50;102523.84;;;4.59;100.00
51687;BME280;37774;52.192;4.584;2023-04-30T01:57:39;102641.53;;;5.39;100.00
51687;BME280;37774;52.192;4.584;2023-04-30T02:00:26;102534.28;;;4.62;100.00
51687;BME280;37774;52.192;4.584;2023-04-30T02:03:13;102658.25;;;5.28;100.00
51687;BME280;37774;52.192;4.584;2023-04-30T02:05:59;102588.44;;;5.03;100.00
51687;BME280;37774;52.192;4.584;2023-04-30T02:08:44;102665.13;;;5.48;100.00
51687;BME280;37774;52.192;4.584;2023-04-30T02:11:30;102615.31;;;5.08;100.00
51687;BME280;37774;52.192;4.584;2023-04-30T02:14:15;102665.94;;;5.47;100.00
51687;BME280;37774;52.192;4.584;2023-04-30T02:17:01;102678.94;;;5.49;100.00
51687;BME280;37774;52.192;4.584;2023-04-30T02:19:48;102672.06;;;5.49;100.00
51687;BME280;37774;52.192;4.584;2023-04-30T02:22:33;102690.53;;;5.39;100.00
51687;BME280;37774;52.192;4.584;2023-04-30T02:25:19;102687.81;;;5.36;100.00
51687;BME280;37774;52.192;4.584;2023-04-30T02:28:05;102692.03;;;5.34;100.00
51687;BME280;37774;52.192;4.584;2023-04-30T02:30:50;102700.84;;;5.39;100.00
51687;BME280;37774;52.192;4.584;2023-04-30T02:33:36;102659.38;;;4.95;100.00
51687;BME280;37774;52.192;4.584;2023-04-30T02:36:23;102654.31;;;4.96;100.00
51687;BME280;37774;52.192;4.584;2023-04-30T02:39:08;102587.34;;;4.39;100.00
51687;BME280;37774;52.192;4.584;2023-04-30T02:41:53;102634.28;;;4.71;100.00
51687;BME280;37774;52.192;4.584;2023-04-30T02:44:39;102605.84;;;4.50;100.00
51687;BME280;37774;52.192;4.584;2023-04-30T02:47:25;102685.16;;;4.95;100.00
51687;BME280;37774;52.192;4.584;2023-04-30T02:50:10;102719.41;;;5.12;100.00
51687;BME280;37774;52.192;4.584;2023-04-30T02:52:57;102427.47;;;3.38;100.00
51687;BME280;37774;52.192;4.584;2023-04-30T02:55:43;102594.31;;;4.42;100.00
51687;BME280;37774;52.192;4.584;2023-04-30T02:58:29;102562.16;;;4.14;100.00
51687;BME280;37774;52.192;4.584;2023-04-30T03:01:14;102728.56;;;5.25;100.00
51687;BME280;37774;52.192;4.584;2023-04-30T03:03:59;102723.28;;;5.22;100.00
51687;BME280;37774;52.192;4.584;2023-04-30T03:06:46;102600.06;;;4.36;100.00
51687;BME280;37774;52.192;4.584;2023-04-30T03:09:33;102583.53;;;4.13;100.00
51687;BME280;37774;52.192;4.584;2023-04-30T03:12:18;102733.56;;;5.02;100.00
51687;BME280;37774;52.192;4.584;2023-04-30T03:15:05;102735.56;;;5.08;100.00
51687;BME280;37774;52.192;4.584;2023-04-30T03:17:50;102735.97;;;4.97;100.00
51687;BME280;37774;52.192;4.584;2023-04-30T03:20:36;102729.84;;;4.95;100.00
51687;BME280;37774;52.192;4.584;2023-04-30T03:23:21;102693.34;;;4.86;100.00
51687;BME280;37774;52.192;4.584;2023-04-30T03:26:08;102663.06;;;4.62;100.00
51687;BME280;37774;52.192;4.584;2023-04-30T03:28:54;102718.88;;;5.00;100.00
51687;BME280;37774;52.192;4.584;2023-04-30T03:31:39;102602.72;;;4.19;100.00
51687;BME280;37774;52.192;4.584;2023-04-30T03:34:25;102709.69;;;4.87;100.00
51687;BME280;37774;52.192;4.584;2023-04-30T03:37:11;102655.00;;;4.55;100.00
51687;BME280;37774;52.192;4.584;2023-04-30T03:39:56;102711.00;;;4.96;100.00
51687;BME280;37774;52.192;4.584;2023-04-30T03:42:43;102701.50;;;4.95;100.00
51687;BME280;37774;52.192;4.584;2023-04-30T03:45:28;102696.06;;;4.89;100.00
51687;BME280;37774;52.192;4.584;2023-04-30T03:48:14;102673.72;;;4.70;100.00
51687;BME280;37774;52.192;4.584;2023-04-30T03:51:00;102696.59;;;4.82;100.00
51687;BME280;37774;52.192;4.584;2023-04-30T03:53:46;102695.69;;;4.81;100.00
51687;BME280;37774;52.192;4.584;2023-04-30T03:56:31;102698.38;;;4.83;100.00
51687;BME280;37774;52.192;4.584;2023-04-30T03:59:18;102678.78;;;4.68;100.00
51687;BME280;37774;52.192;4.584;2023-04-30T04:02:03;102703.06;;;4.74;100.00
51687;BME280;37774;52.192;4.584;2023-04-30T04:04:49;102545.28;;;3.83;100.00
51687;BME280;37774;52.192;4.584;2023-04-30T04:07:35;102686.59;;;4.88;100.00
51687;BME280;37774;52.192;4.584;2023-04-30T04:10:21;102615.28;;;4.49;100.00
51687;BME280;37774;52.192;4.584;2023-04-30T04:13:06;102643.50;;;4.66;100.00
51687;BME280;37774;52.192;4.584;2023-04-30T04:15:53;102658.03;;;4.83;100.00
51687;BME280;37774;52.192;4.584;2023-04-30T04:18:38;102686.31;;;5.02;100.00
51687;BME280;37774;52.192;4.584;2023-04-30T04:21:24;102687.28;;;5.04;100.00
51687;BME280;37774;52.192;4.584;2023-04-30T04:24:09;102656.34;;;4.84;100.00
51687;BME280;37774;52.192;4.584;2023-04-30T04:26:55;102690.09;;;4.90;100.00
51687;BME280;37774;52.192;4.584;2023-04-30T04:29:41;102635.63;;;4.63;100.00
51687;BME280;37774;52.192;4.584;2023-04-30T04:32:28;102646.94;;;4.66;100.00
51687;BME280;37774;52.192;4.584;2023-04-30T04:35:13;102686.44;;;4.85;100.00
51687;BME280;37774;52.192;4.584;2023-04-30T04:37:59;102648.84;;;4.71;100.00
51687;BME280;37774;52.192;4.584;2023-04-30T04:40:50;102616.66;;;4.43;100.00
51687;BME280;37774;52.192;4.584;2023-04-30T04:43:36;102673.84;;;4.91;100.00
51687;BME280;37774;52.192;4.584;2023-04-30T04:46:21;102645.44;;;4.72;100.00
51687;BME280;37774;52.192;4.584;2023-04-30T04:49:08;102674.22;;;4.81;100.00
51687;BME280;37774;52.192;4.584;2023-04-30T04:51:53;102657.59;;;4.74;100.00
51687;BME280;37774;52.192;4.584;2023-04-30T04:54:38;102646.72;;;4.80;100.00
51687;BME280;37774;52.192;4.584;2023-04-30T04:57:24;102671.66;;;5.01;100.00
51687;BME280;37774;52.192;4.584;2023-04-30T05:00:10;102673.16;;;4.95;100.00
51687;BME280;37774;52.192;4.584;2023-04-30T05:02:55;102636.56;;;4.65;100.00
51687;BME280;37774;52.192;4.584;2023-04-30T05:05:43;102585.06;;;4.45;100.00
51687;BME280;37774;52.192;4.584;2023-04-30T05:08:28;102691.13;;;5.14;100.00
51687;BME280;37774;52.192;4.584;2023-04-30T05:11:14;102693.16;;;5.21;100.00
51687;BME280;37774;52.192;4.584;2023-04-30T05:13:59;102301.00;;;2.71;100.00
51687;BME280;37774;52.192;4.584;2023-04-30T05:16:45;102564.19;;;4.59;100.00
51687;BME280;37774;52.192;4.584;2023-04-30T05:19:31;102636.38;;;5.39;100.00
51687;BME280;37774;52.192;4.584;2023-04-30T05:22:17;102630.16;;;5.34;100.00
51687;BME280;37774;52.192;4.584;2023-04-30T05:25:04;102624.44;;;5.41;100.00
51687;BME280;37774;52.192;4.584;2023-04-30T05:27:50;102616.13;;;5.48;100.00
51687;BME280;37774;52.192;4.584;2023-04-30T05:30:35;102524.81;;;5.01;100.00
51687;BME280;37774;52.192;4.584;2023-04-30T05:33:21;102488.84;;;5.04;100.00
51687;BME280;37774;52.192;4.584;2023-04-30T05:36:07;102486.13;;;5.22;100.00
51687;BME280;37774;52.192;4.584;2023-04-30T05:38:53;102610.16;;;6.13;100.00
51687;BME280;37774;52.192;4.584;2023-04-30T05:41:39;102571.72;;;5.98;100.00
51687;BME280;37774;52.192;4.584;2023-04-30T05:44:24;102556.28;;;5.99;100.00
51687;BME280;37774;52.192;4.584;2023-04-30T05:47:13;102589.25;;;6.28;100.00
51687;BME280;37774;52.192;4.584;2023-04-30T05:49:58;102539.03;;;5.98;100.00
51687;BME280;37774;52.192;4.584;2023-04-30T05:52:44;102625.03;;;6.64;100.00
51687;BME280;37774;52.192;4.584;2023-04-30T05:55:30;102626.16;;;6.71;100.00
51687;BME280;37774;52.192;4.584;2023-04-30T05:58:16;102626.81;;;6.90;100.00
51687;BME280;37774;52.192;4.584;2023-04-30T06:01:02;102545.41;;;6.52;100.00
51687;BME280;37774;52.192;4.584;2023-04-30T06:03:48;102619.13;;;7.15;100.00
51687;BME280;37774;52.192;4.584;2023-04-30T06:06:34;102578.88;;;6.98;100.00
51687;BME280;37774;52.192;4.584;2023-04-30T06:09:19;102552.88;;;6.93;100.00
51687;BME280;37774;52.192;4.584;2023-04-30T06:12:06;102626.41;;;7.52;100.00
51687;BME280;37774;52.192;4.584;2023-04-30T06:14:52;102537.16;;;7.13;100.00
51687;BME280;37774;52.192;4.584;2023-04-30T06:17:37;102626.22;;;7.73;100.00
51687;BME280;37774;52.192;4.584;2023-04-30T06:20:23;102514.84;;;7.15;100.00
51687;BME280;37774;52.192;4.584;2023-04-30T06:23:10;102597.56;;;7.67;100.00
51687;BME280;37774;52.192;4.584;2023-04-30T06:25:56;102630.03;;;8.10;100.00
51687;BME280;37774;52.192;4.584;2023-04-30T06:28:43;102633.00;;;8.23;100.00
51687;BME280;37774;52.192;4.584;2023-04-30T06:31:28;102618.03;;;8.14;100.00
51687;BME280;37774;52.192;4.584;2023-04-30T06:34:13;102635.88;;;8.32;100.00
51687;BME280;37774;52.192;4.584;2023-04-30T06:36:59;102608.59;;;8.16;100.00
51687;BME280;37774;52.192;4.584;2023-04-30T06:39:44;102609.88;;;8.29;100.00
51687;BME280;37774;52.192;4.584;2023-04-30T06:42:30;102527.78;;;7.70;100.00
51687;BME280;37774;52.192;4.584;2023-04-30T06:45:18;102634.59;;;8.19;100.00
51687;BME280;37774;52.192;4.584;2023-04-30T06:48:04;102627.34;;;8.36;100.00
51687;BME280;37774;52.192;4.584;2023-04-30T06:50:49;102562.09;;;7.92;100.00
51687;BME280;37774;52.192;4.584;2023-04-30T06:53:35;102542.69;;;7.77;100.00
51687;BME280;37774;52.192;4.584;2023-04-30T06:56:20;102618.09;;;8.44;100.00
51687;BME280;37774;52.192;4.584;2023-04-30T06:59:06;102587.47;;;8.31;100.00
51687;BME280;37774;52.192;4.584;2023-04-30T07:01:52;102513.66;;;7.87;100.00
51687;BME280;37774;52.192;4.584;2023-04-30T07:04:38;102576.00;;;8.23;100.00
51687;BME280;37774;52.192;4.584;2023-04-30T07:07:23;102608.56;;;8.43;100.00
51687;BME280;37774;52.192;4.584;2023-04-30T07:10:09;102655.13;;;8.69;100.00
51687;BME280;37774;52.192;4.584;2023-04-30T07:12:54;102637.44;;;8.85;100.00
51687;BME280;37774;52.192;4.584;2023-04-30T07:15:39;102636.63;;;9.18;100.00
51687;BME280;37774;52.192;4.584;2023-04-30T07:18:26;102643.09;;;9.34;100.00
51687;BME280;37774;52.192;4.584;2023-04-30T07:21:11;102615.06;;;9.54;100.00
51687;BME280;37774;52.192;4.584;2023-04-30T07:23:57;102541.88;;;9.32;100.00
51687;BME280;37774;52.192;4.584;2023-04-30T07:26:42;102620.03;;;9.80;100.00
51687;BME280;37774;52.192;4.584;2023-04-30T07:29:28;102614.13;;;9.86;100.00
51687;BME280;37774;52.192;4.584;2023-04-30T07:32:14;102571.25;;;10.05;100.00
51687;BME280;37774;52.192;4.584;2023-04-30T07:35:01;102556.75;;;10.15;100.00
51687;BME280;37774;52.192;4.584;2023-04-30T07:37:47;102541.00;;;10.47;100.00
51687;BME280;37774;52.192;4.584;2023-04-30T07:40:32;102602.56;;;10.94;100.00
51687;BME280;37774;52.192;4.584;2023-04-30T07:43:18;102480.97;;;10.36;100.00
51687;BME280;37774;52.192;4.584;2023-04-30T07:46:03;102577.63;;;11.05;100.00
51687;BME280;37774;52.192;4.584;2023-04-30T07:48:49;102432.25;;;10.70;100.00
51687;BME280;37774;52.192;4.584;2023-04-30T07:51:35;102579.56;;;11.66;100.00
51687;BME280;37774;52.192;4.584;2023-04-30T07:54:21;102496.81;;;11.47;100.00
51687;BME280;37774;52.192;4.584;2023-04-30T07:57:07;102432.41;;;11.33;100.00
51687;BME280;37774;52.192;4.584;2023-04-30T07:59:52;102564.69;;;12.19;100.00
51687;BME280;37774;52.192;4.584;2023-04-30T08:02:37;102472.22;;;11.88;100.00
51687;BME280;37774;52.192;4.584;2023-04-30T08:05:22;102520.88;;;12.61;100.00
51687;BME280;37774;52.192;4.584;2023-04-30T08:08:09;102450.44;;;12.56;100.00
51687;BME280;37774;52.192;4.584;2023-04-30T08:10:54;102431.94;;;12.33;100.00
51687;BME280;37774;52.192;4.584;2023-04-30T08:13:40;102412.16;;;12.54;100.00
51687;BME280;37774;52.192;4.584;2023-04-30T08:16:26;102432.47;;;12.89;100.00
51687;BME280;37774;52.192;4.584;2023-04-30T08:19:11;102461.31;;;13.06;100.00
51687;BME280;37774;52.192;4.584;2023-04-30T08:21:57;102525.94;;;13.37;100.00
51687;BME280;37774;52.192;4.584;2023-04-30T08:24:44;102473.75;;;13.38;100.00
51687;BME280;37774;52.192;4.584;2023-04-30T08:27:29;102446.00;;;13.53;100.00
51687;BME280;37774;52.192;4.584;2023-04-30T08:30:15;102438.22;;;13.59;100.00
51687;BME280;37774;52.192;4.584;2023-04-30T08:33:00;102430.34;;;13.53;100.00
51687;BME280;37774;52.192;4.584;2023-04-30T08:35:46;102510.03;;;14.59;100.00
51687;BME280;37774;52.192;4.584;2023-04-30T08:38:31;102524.06;;;14.77;100.00
51687;BME280;37774;52.192;4.584;2023-04-30T08:41:23;102408.81;;;14.28;100.00
51687;BME280;37774;52.192;4.584;2023-04-30T08:44:09;102515.38;;;14.99;100.00
51687;BME280;37774;52.192;4.584;2023-04-30T08:46:55;102455.09;;;14.54;100.00
51687;BME280;37774;52.192;4.584;2023-04-30T08:49:42;102263.28;;;13.95;100.00
51687;BME280;37774;52.192;4.584;2023-04-30T08:52:29;102435.97;;;14.77;100.00
51687;BME280;37774;52.192;4.584;2023-04-30T08:55:15;102515.38;;;15.26;100.00
51687;BME280;37774;52.192;4.584;2023-04-30T08:58:02;102416.72;;;14.47;100.00
51687;BME280;37774;52.192;4.584;2023-04-30T09:00:48;102522.34;;;15.41;100.00
51687;BME280;37774;52.192;4.584;2023-04-30T09:03:34;102451.63;;;14.68;100.00
51687;BME280;37774;52.192;4.584;2023-04-30T09:06:19;102297.22;;;13.79;100.00
51687;BME280;37774;52.192;4.584;2023-04-30T09:09:08;102470.88;;;15.07;100.00
51687;BME280;37774;52.192;4.584;2023-04-30T09:12:10;102512.69;;;15.91;100.00
51687;BME280;37774;52.192;4.584;2023-04-30T09:15:00;102195.31;;;14.02;100.00
51687;BME280;37774;52.192;4.584;2023-04-30T09:17:46;102523.94;;;16.18;100.00
51687;BME280;37774;52.192;4.584;2023-04-30T09:20:31;102412.25;;;15.62;100.00
51687;BME280;37774;52.192;4.584;2023-04-30T09:23:17;102445.50;;;15.48;100.00
51687;BME280;37774;52.192;4.584;2023-04-30T09:26:02;102470.56;;;16.25;100.00
51687;BME280;37774;52.192;4.584;2023-04-30T09:28:55;102428.03;;;15.47;100.00
51687;BME280;37774;52.192;4.584;2023-04-30T09:31:44;102424.44;;;15.77;100.00
51687;BME280;37774;52.192;4.584;2023-04-30T09:34:33;102439.97;;;16.24;100.00
51687;BME280;37774;52.192;4.584;2023-04-30T09:37:18;102376.94;;;16.38;100.00
51687;BME280;37774;52.192;4.584;2023-04-30T09:40:04;102429.91;;;16.88;100.00
51687;BME280;37774;52.192;4.584;2023-04-30T09:42:57;102354.84;;;16.65;100.00
51687;BME280;37774;52.192;4.584;2023-04-30T09:45:44;102488.88;;;17.53;100.00
51687;BME280;37774;52.192;4.584;2023-04-30T09:48:33;102348.84;;;16.53;100.00
51687;BME280;37774;52.192;4.584;2023-04-30T09:51:18;102396.94;;;16.56;100.00
51687;BME280;37774;52.192;4.584;2023-04-30T09:54:05;102440.41;;;16.88;100.00
51687;BME280;37774;52.192;4.584;2023-04-30T09:56:53;102494.38;;;17.27;100.00
51687;BME280;37774;52.192;4.584;2023-04-30T09:59:43;102473.88;;;18.35;100.00
51687;BME280;37774;52.192;4.584;2023-04-30T10:02:30;102473.66;;;17.80;100.00
51687;BME280;37774;52.192;4.584;2023-04-30T10:05:19;102261.03;;;16.86;100.00
51687;BME280;37774;52.192;4.584;2023-04-30T10:08:06;102430.63;;;17.87;100.00
51687;BME280;37774;52.192;4.584;2023-04-30T10:10:57;102428.91;;;18.50;100.00
51687;BME280;37774;52.192;4.584;2023-04-30T10:13:49;102301.69;;;17.28;100.00
51687;BME280;37774;52.192;4.584;2023-04-30T10:16:42;102203.47;;;17.38;100.00
51687;BME280;37774;52.192;4.584;2023-04-30T10:19:29;102310.81;;;17.67;100.00
51687;BME280;37774;52.192;4.584;2023-04-30T10:22:17;102396.53;;;18.44;100.00
51687;BME280;37774;52.192;4.584;2023-04-30T10:25:04;102373.00;;;18.36;100.00
51687;BME280;37774;52.192;4.584;2023-04-30T10:27:54;102374.22;;;18.68;100.00
51687;BME280;37774;52.192;4.584;2023-04-30T10:30:41;102237.50;;;17.49;100.00
51687;BME280;37774;52.192;4.584;2023-04-30T10:33:33;102265.06;;;18.37;100.00
51687;BME280;37774;52.192;4.584;2023-04-30T10:36:27;102326.38;;;18.43;100.00
51687;BME280;37774;52.192;4.584;2023-04-30T10:39:19;102281.41;;;18.05;100.00
51687;BME280;37774;52.192;4.584;2023-04-30T10:42:07;102254.22;;;18.04;100.00
51687;BME280;37774;52.192;4.584;2023-04-30T10:44:53;102284.34;;;17.81;100.00
51687;BME280;37774;52.192;4.584;2023-04-30T10:47:41;102203.59;;;17.90;100.00
51687;BME280;37774;52.192;4.584;2023-04-30T10:50:28;102438.66;;;19.49;100.00
51687;BME280;37774;52.192;4.584;2023-04-30T10:53:17;102427.69;;;20.11;100.00
51687;BME280;37774;52.192;4.584;2023-04-30T10:56:06;102427.22;;;19.48;100.00
51687;BME280;37774;52.192;4.584;2023-04-30T10:58:51;102318.09;;;19.55;100.00
51687;BME280;37774;52.192;4.584;2023-04-30T11:01:55;102356.19;;;19.83;100.00
51687;BME280;37774;52.192;4.584;2023-04-30T11:05:09;102301.03;;;18.87;100.00
51687;BME280;37774;52.192;4.584;2023-04-30T11:07:56;102193.88;;;17.93;100.00
51687;BME280;37774;52.192;4.584;2023-04-30T11:10:56;102370.97;;;19.04;100.00
51687;BME280;37774;52.192;4.584;2023-04-30T11:13:45;102431.53;;;19.98;100.00
51687;BME280;37774;52.192;4.584;2023-04-30T11:16:33;102359.69;;;18.94;100.00
51687;BME280;37774;52.192;4.584;2023-04-30T11:19:21;102448.75;;;19.72;100.00
51687;BME280;37774;52.192;4.584;2023-04-30T11:22:22;102354.53;;;19.36;100.00
51687;BME280;37774;52.192;4.584;2023-04-30T11:25:08;102411.50;;;19.44;100.00
51687;BME280;37774;52.192;4.584;2023-04-30T11:27:55;102471.56;;;19.73;100.00
51687;BME280;37774;52.192;4.584;2023-04-30T11:30:49;102527.16;;;19.62;100.00
51687;BME280;37774;52.192;4.584;2023-04-30T11:33:39;102660.78;;;19.62;100.00
51687;BME280;37774;52.192;4.584;2023-04-30T11:36:25;102729.94;;;19.20;100.00
51687;BME280;37774;52.192;4.584;2023-04-30T11:39:14;102886.03;;;20.08;100.00
51687;BME280;37774;52.192;4.584;2023-04-30T11:42:01;102680.81;;;19.16;100.00
51687;BME280;37774;52.192;4.584;2023-04-30T11:44:47;102729.63;;;19.99;100.00
51687;BME280;37774;52.192;4.584;2023-04-30T11:47:42;102663.50;;;20.53;100.00
51687;BME280;37774;52.192;4.584;2023-04-30T11:50:32;102459.94;;;21.00;100.00
51687;BME280;37774;52.192;4.584;2023-04-30T11:53:18;102368.06;;;20.40;100.00
51687;BME280;37774;52.192;4.584;2023-04-30T11:56:10;102305.13;;;19.85;100.00
51687;BME280;37774;52.192;4.584;2023-04-30T11:58:56;102299.38;;;20.07;100.00
51687;BME280;37774;52.192;4.584;2023-04-30T12:01:42;102210.22;;;19.46;100.00
51687;BME280;37774;52.192;4.584;2023-04-30T12:04:29;102247.44;;;20.09;100.00
51687;BME280;37774;52.192;4.584;2023-04-30T12:07:15;102358.53;;;21.36;100.00
51687;BME280;37774;52.192;4.584;2023-04-30T12:10:00;102216.41;;;20.19;100.00
51687;BME280;37774;52.192;4.584;2023-04-30T12:12:46;102266.13;;;21.01;100.00
51687;BME280;37774;52.192;4.584;2023-04-30T12:15:32;102084.59;;;19.45;100.00
51687;BME280;37774;52.192;4.584;2023-04-30T12:18:18;102301.09;;;20.78;100.00
51687;BME280;37774;52.192;4.584;2023-04-30T12:21:05;102027.00;;;19.64;100.00
51687;BME280;37774;52.192;4.584;2023-04-30T12:23:51;102157.22;;;20.60;100.00
51687;BME280;37774;52.192;4.584;2023-04-30T12:26:37;102318.78;;;22.24;100.00
51687;BME280;37774;52.192;4.584;2023-04-30T12:29:24;102307.97;;;22.05;100.00
51687;BME280;37774;52.192;4.584;2023-04-30T12:32:09;102244.78;;;21.94;100.00
51687;BME280;37774;52.192;4.584;2023-04-30T12:35:00;102294.66;;;21.80;100.00
51687;BME280;37774;52.192;4.584;2023-04-30T12:37:49;102300.88;;;22.59;100.00
51687;BME280;37774;52.192;4.584;2023-04-30T12:40:36;102165.19;;;21.75;100.00
51687;BME280;37774;52.192;4.584;2023-04-30T12:43:21;102154.38;;;21.81;100.00
51687;BME280;37774;52.192;4.584;2023-04-30T12:46:06;102012.81;;;21.17;100.00
51687;BME280;37774;52.192;4.584;2023-04-30T12:48:53;102129.53;;;22.11;100.00
51687;BME280;37774;52.192;4.584;2023-04-30T12:51:41;102199.38;;;21.81;100.00
51687;BME280;37774;52.192;4.584;2023-04-30T12:54:29;102308.97;;;22.55;100.00
51687;BME280;37774;52.192;4.584;2023-04-30T12:57:15;102273.19;;;21.89;100.00
51687;BME280;37774;52.192;4.584;2023-04-30T13:00:01;102157.81;;;21.56;100.00
51687;BME280;37774;52.192;4.584;2023-04-30T13:02:48;102207.66;;;21.70;100.00
51687;BME280;37774;52.192;4.584;2023-04-30T13:05:33;102137.66;;;20.67;100.00
51687;BME280;37774;52.192;4.584;2023-04-30T13:08:19;102178.63;;;20.82;100.00
51687;BME280;37774;52.192;4.584;2023-04-30T13:11:07;102270.91;;;21.78;100.00
51687;BME280;37774;52.192;4.584;2023-04-30T13:13:52;102282.44;;;21.76;100.00
51687;BME280;37774;52.192;4.584;2023-04-30T13:16:38;102166.47;;;22.14;100.00
51687;BME280;37774;52.192;4.584;2023-04-30T13:19:24;102250.16;;;21.93;100.00
51687;BME280;37774;52.192;4.584;2023-04-30T13:22:10;102206.59;;;22.28;100.00
51687;BME280;37774;52.192;4.584;2023-04-30T13:24:56;102246.41;;;21.71;100.00
51687;BME280;37774;52.192;4.584;2023-04-30T13:27:42;102239.47;;;22.21;100.00
51687;BME280;37774;52.192;4.584;2023-04-30T13:30:28;102165.97;;;21.22;100.00
51687;BME280;37774;52.192;4.584;2023-04-30T13:33:13;102200.88;;;21.88;100.00
51687;BME280;37774;52.192;4.584;2023-04-30T13:35:59;102182.41;;;21.58;100.00
51687;BME280;37774;52.192;4.584;2023-04-30T13:38:45;102156.09;;;22.08;100.00
51687;BME280;37774;52.192;4.584;2023-04-30T13:41:31;102215.06;;;22.38;100.00
51687;BME280;37774;52.192;4.584;2023-04-30T13:44:18;102155.78;;;22.17;100.00
51687;BME280;37774;52.192;4.584;2023-04-30T13:47:03;102216.16;;;22.32;100.00
51687;BME280;37774;52.192;4.584;2023-04-30T13:49:49;102123.56;;;21.80;100.00
51687;BME280;37774;52.192;4.584;2023-04-30T13:52:34;102032.34;;;21.91;100.00
51687;BME280;37774;52.192;4.584;2023-04-30T13:55:20;102101.47;;;21.81;100.00
51687;BME280;37774;52.192;4.584;2023-04-30T13:58:05;102178.28;;;22.30;100.00
51687;BME280;37774;52.192;4.584;2023-04-30T14:00:52;102132.25;;;22.58;100.00
51687;BME280;37774;52.192;4.584;2023-04-30T14:03:37;102203.34;;;22.69;100.00
51687;BME280;37774;52.192;4.584;2023-04-30T14:06:23;102158.28;;;21.96;100.00
51687;BME280;37774;52.192;4.584;2023-04-30T14:09:08;102197.78;;;22.77;100.00
51687;BME280;37774;52.192;4.584;2023-04-30T14:11:54;102208.44;;;22.75;100.00
51687;BME280;37774;52.192;4.584;2023-04-30T14:14:41;102102.38;;;21.53;100.00
51687;BME280;37774;52.192;4.584;2023-04-30T14:17:36;102164.00;;;21.28;100.00
51687;BME280;37774;52.192;4.584;2023-04-30T14:20:22;101937.97;;;19.74;100.00
51687;BME280;37774;52.192;4.584;2023-04-30T14:23:08;102086.50;;;20.99;100.00
51687;BME280;37774;52.192;4.584;2023-04-30T14:25:53;102071.16;;;20.84;100.00
51687;BME280;37774;52.192;4.584;2023-04-30T14:28:39;102186.78;;;21.33;100.00